AirNav   Air Wisconsin Up To $57,000 Bonus
 
 536 users online  

6LL4 Wildy Field Airport
New Athens, Illinois, USA

GOING TO NEW ATHENS?


FAA INFORMATION EFFECTIVE 26 JANUARY 2023

Location

FAA Identifier: 6LL4
Lat/Long: 38-16-03.1770N 089-53-30.3720W
38-16.052950N 089-53.506200W
38.2675492,-89.8917700
(estimated)
Elevation: 450 ft. / 137 m (estimated)
Variation: 02E (1985)
From city: 3 miles SW of NEW ATHENS, IL
Time zone: UTC -6 (UTC -5 during Daylight Saving Time)
Zip code: 62264

Airport Operations

Airport use: Private use. Permission required prior to landing
Activation date: 12/1969
Control tower: no
ARTCC: KANSAS CITY CENTER
FSS: SAINT LOUIS FLIGHT SERVICE STATION
Attendance: IREG
Wind indicator: yes
Segmented circle: no

Airport Communications

WX AWOS-3 at SAR (12 nm SE): 118.375 (618-443-3296)

Nearby radio navigation aids

VOR radial/distance  VOR name  Freq  Var
TOYr173/28.3TROY VORTAC116.0004E
ENLr251/35.7CENTRALIA VORTAC115.0004E
FAMr023/39.1FARMINGTON VORTAC115.7001E

 
NDB name  Hdg/Dist  Freq  Var  ID
GOOEY212/14.638502WJD .--- -..

Airport Services

Airframe service: NONE
Powerplant service: NONE

Runway Information

Runway 18/36

Dimensions: 1900 x 100 ft. / 579 x 30 m
Surface: turf
RUNWAY 18  RUNWAY 36
Traffic pattern: leftleft

Airport Ownership and Management from official FAA records

Ownership: Privately-owned
Owner: RALPH H. WILDY
5467 WHITE OAK
SMITHTON, IL 62285
Phone 618-473-9696
Manager: RALPH H. WILDY
5467 WHITE OAK
SMITHTON, IL 62285
Phone 618-473-9696

Airport Operational Statistics

Aircraft based on the field: 1
Single engine airplanes: 1
    

Additional Remarks

FOR CD CTC ST LOUIS APCH AT 314-890-1018.

Instrument Procedures

There are no published instrument procedures at 6LL4.

Some nearby airports with instrument procedures:

KSAR - Sparta Community Airport-Hunter Field (12 nm SE)
KBLV - Scott Air Force Base/MidAmerica Airport (17 nm N)
KCPS - St Louis Downtown Airport (22 nm NW)
KFES - Festus Memorial Airport (24 nm W)
KPCD - Perryville Regional Airport (24 nm S)
 
Loc | Ops | Rwys | IFR | FBO | Links
Com | Nav | Svcs | Stats | Notes
Area around 6LL4 (Wildy Field Airport)
 
Road maps at: MapQuest Bing Google
 
Aerial photo
No photo
 
Sectional chart

 
Airport distance calculator
Flying to Wildy Field Airport? Find the distance to fly.

From to 6LL4

Sunrise and sunset
Times for 05-Feb-2023
 Local
(UTC-6)
 Zulu
(UTC)
Morning civil twilight06:3412:34
Sunrise07:0213:02
Sunset17:2523:25
Evening civil twilight17:5323:53

Current date and time
Zulu (UTC)  05-Feb-2023 07:11:48
Local (UTC-6)  05-Feb-2023 01:11:48
 
METAR
KSAR 
11nm SE 
050655Z AUTO 19011KT 10SM CLR 03/M02 A3011 RMK AO2 T00311021
KBLV 
16nm N 
050655Z 20009KT 10SM CLR 03/M02 A3006 RMK AO2A SLP185 T00281019 $
KCPS 
22nm NW 
050653Z AUTO 18006KT 10SM CLR 03/M02 A3005 RMK AO2 SLP179 T00331022
TAF
KBLV 
16nm N 
050000Z 0500/0606 18009KT 9999 FEW015 BKN100 WS020/25040KT QNH3004INS BECMG 0510/0511 21009KT 9999 BKN015 BKN200 QNH3003INS BECMG 0515/0516 23012KT 9999 SCT015 SCT030 QNH3006INS BECMG 0521/0522 36006KT 9999 SCT030 QNH3012INS BECMG 0602/0603 36006KT 9999 BKN030 QNH3014INS TX13/0521Z TN03/0507Z
NOTAMs
Click for the latest NOTAMs
NOTAMs are issued by the DoD/FAA and will open in a separate window not controlled by AirNav.

 

 
 

Would you like to see your business listed on this page?

 If your business provides an interesting product or service to pilots, flight crews, aircraft, or users of the Wildy Field Airport, you should consider listing it here.  To start the listing process, click on the button below
 
Add a business
 

Other Pages about Wildy Field Airport

Update a link
 
Copyright © AirNav, LLC. All rights reserved. Privacy Policy  Contact